Terminal Aerodrome Forecast
Issued by NWS

Home | Current Version | Previous Version | Text Only | Print | Product List | Glossary On
Versions: 1 2 3 4 5 6 7 8 9 10 11 12 13 14 15 16 17
000
FTUS43 KDLH 030812 RRA
TAFHYR
TAF
KHYR 030812Z 0308/0406 00000KT P6SM FEW050
     FM031500 23006KT P6SM SCT050
     FM031800 23008KT P6SM BKN060
      TEMPO 0322/0401 6SM TSRA BR BKN035CB
     FM040300 00000KT P6SM SCT060=

USA.gov is the U.S. government's official web portal to all federal, state and local government web resources and services.